Time;durP1;ratioP1;P1;durP2;ratioP2;P2;SDS_P1;SDS_P2;PMS_P1;PMS_P2;Temp;Humidity;BMP_temperature;BMP_pressure;BME280_temperature;BME280_humidity;BME280_pressure;Samples;Min_cycle;Max_cycle;Signal;HPM_P1;HPM_P2
2022/04/13 00:01:45;;;;;;;4.45;2.08;;;11.60;99.90;;;;;;6276415;22;20019;-84
2022/04/13 00:04:11;;;;;;;5.63;2.63;;;11.40;99.90;;;;;;6276012;22;20346;-82
2022/04/13 00:06:38;;;;;;;3.35;1.60;;;11.70;99.90;;;;;;6275987;22;20054;-82
2022/04/13 00:09:08;;;;;;;4.10;2.45;;;11.40;99.90;;;;;;6275227;22;20515;-84
2022/04/13 00:11:34;;;;;;;4.90;1.92;;;11.40;99.90;;;;;;6248448;22;20012;-84
2022/04/13 00:14:01;;;;;;;4.43;2.65;;;11.40;99.90;;;;;;6275239;22;20019;-82
2022/04/13 00:16:27;;;;;;;4.93;2.55;;;11.50;99.90;;;;;;6276042;22;20363;-83
2022/04/13 00:18:53;;;;;;;4.15;2.20;;;11.20;99.90;;;;;;6276953;22;20016;-89
2022/04/13 00:21:18;;;;;;;4.35;2.58;;;11.20;99.90;;;;;;6276124;22;20051;-91
2022/04/13 00:23:44;;;;;;;3.97;2.40;;;11.40;99.90;;;;;;6275710;22;20066;-91
2022/04/13 00:26:10;;;;;;;4.15;2.35;;;11.10;99.90;;;;;;6249139;22;20055;-90
2022/04/13 00:28:36;;;;;;;5.00;2.63;;;11.20;99.90;;;;;;6276384;22;20020;-90
2022/04/13 00:31:02;;;;;;;3.33;2.15;;;11.00;99.90;;;;;;6249137;22;20020;-91
2022/04/13 00:33:28;;;;;;;5.50;2.83;;;11.60;99.90;;;;;;6277134;22;20026;-90
2022/04/13 00:35:54;;;;;;;5.30;2.53;;;10.60;99.90;;;;;;6278474;22;20397;-90
2022/04/13 00:38:22;;;;;;;5.78;3.17;;;11.60;99.90;;;;;;6278386;22;20023;-91
2022/04/13 00:40:48;;;;;;;5.15;2.92;;;10.80;99.90;;;;;;6278368;22;20008;-89
2022/04/13 00:43:14;;;;;;;4.63;2.70;;;11.40;99.90;;;;;;6277977;22;20066;-88
2022/04/13 00:45:47;;;;;;;5.70;2.88;;;10.70;99.90;;;;;;6250850;22;20050;-90
2022/04/13 00:48:30;;;;;;;5.40;2.75;;;10.80;99.90;;;;;;6277813;22;20054;-84
2022/04/13 00:50:55;;;;;;;4.63;2.58;;;10.70;99.90;;;;;;6251202;22;20031;-85
2022/04/13 00:53:23;;;;;;;3.83;1.90;;;11.40;99.90;;;;;;6277407;22;20099;-84
2022/04/13 00:55:50;;;;;;;4.03;2.03;;;11.30;99.90;;;;;;6250510;22;20453;-85
2022/04/13 00:58:19;;;;;;;2.67;1.70;;;10.70;99.90;;;;;;6277148;22;20035;-85
2022/04/13 01:00:48;;;;;;;3.75;1.95;;;11.10;99.90;;;;;;6277811;22;20019;-84
2022/04/13 01:03:19;;;;;;;3.10;1.48;;;10.80;99.90;;;;;;6277800;22;20027;-85
2022/04/13 01:05:49;;;;;;;5.95;2.15;;;10.70;99.90;;;;;;6250949;22;20091;-85
2022/04/13 01:08:17;;;;;;;3.72;2.00;;;11.20;99.90;;;;;;6249969;22;20437;-86
2022/04/13 01:10:45;;;;;;;5.15;2.55;;;10.70;99.90;;;;;;6250434;22;20024;-85
2022/04/13 01:13:11;;;;;;;6.03;2.97;;;10.90;99.90;;;;;;6276913;22;20020;-83
2022/04/13 01:15:37;;;;;;;4.32;2.67;;;10.60;99.90;;;;;;6277540;22;20024;-84
2022/04/13 01:18:03;;;;;;;4.72;2.50;;;10.70;99.90;;;;;;6277359;22;20042;-85
2022/04/13 01:20:29;;;;;;;3.70;2.28;;;10.60;99.90;;;;;;6277053;22;20426;-86
2022/04/13 01:22:55;;;;;;;3.65;1.95;;;11.30;99.90;;;;;;6277347;22;20027;-84
2022/04/13 01:25:21;;;;;;;3.78;2.03;;;10.60;99.90;;;;;;6249547;22;20047;-84
2022/04/13 01:27:47;;;;;;;3.17;2.00;;;10.50;99.90;;;;;;6277556;22;20142;-85
2022/04/13 01:30:13;;;;;;;3.53;1.95;;;10.50;99.90;;;;;;6277685;22;20450;-83
2022/04/13 01:32:39;;;;;;;7.03;2.65;;;10.40;99.90;;;;;;6250413;22;20452;-85
2022/04/13 01:35:06;;;;;;;4.60;2.63;;;10.40;99.90;;;;;;6277912;22;20020;-84
2022/04/13 01:37:32;;;;;;;5.32;2.40;;;10.40;99.90;;;;;;6277813;22;20019;-90
2022/04/13 01:39:58;;;;;;;3.25;2.35;;;10.30;99.90;;;;;;6277141;22;20377;-89
2022/04/13 01:42:24;;;;;;;4.10;2.20;;;10.80;99.90;;;;;;6249977;22;20024;-91
2022/04/13 01:44:50;;;;;;;3.78;2.40;;;10.30;99.90;;;;;;6249915;22;20027;-88
2022/04/13 01:47:15;;;;;;;4.05;2.20;;;10.30;99.90;;;;;;6279536;22;20024;-83
2022/04/13 01:49:42;;;;;;;3.85;2.35;;;10.60;99.90;;;;;;6252132;22;20414;-86
2022/04/13 01:52:09;;;;;;;3.58;2.30;;;10.60;99.90;;;;;;6277327;22;20016;-83
2022/04/13 01:54:35;;;;;;;3.72;2.17;;;10.40;99.90;;;;;;6278668;22;20099;-83
2022/04/13 01:57:02;;;;;;;3.90;2.20;;;10.20;99.90;;;;;;6250679;22;20016;-83
2022/04/13 01:59:28;;;;;;;5.43;2.20;;;10.20;99.90;;;;;;6277447;22;20098;-82
2022/04/13 02:01:54;;;;;;;3.60;1.88;;;10.10;99.90;;;;;;6277393;22;20318;-82
2022/04/13 02:04:25;;;;;;;4.50;2.30;;;10.10;99.90;;;;;;6249633;22;20018;-82
2022/04/13 02:06:51;;;;;;;4.18;2.35;;;10.10;99.90;;;;;;6277007;22;20069;-83
2022/04/13 02:09:18;;;;;;;3.25;2.00;;;10.20;99.90;;;;;;6250079;22;20020;-85
2022/04/13 02:11:45;;;;;;;2.92;1.55;;;10.30;99.90;;;;;;6277625;22;20035;-84
2022/04/13 02:14:11;;;;;;;4.28;1.60;;;10.80;99.90;;;;;;6249574;22;20089;-83
2022/04/13 02:16:37;;;;;;;2.53;1.45;;;10.50;99.90;;;;;;6277263;22;20454;-83
2022/04/13 02:19:03;;;;;;;2.80;1.52;;;10.40;99.90;;;;;;6276963;22;20023;-83
2022/04/13 02:21:30;;;;;;;3.10;2.00;;;10.50;99.90;;;;;;6276950;22;20454;-84
2022/04/13 02:23:56;;;;;;;3.13;1.60;;;10.60;99.90;;;;;;6276257;22;20055;-86
2022/04/13 02:26:22;;;;;;;3.17;1.23;;;10.60;99.90;;;;;;6277356;22;20077;-86
2022/04/13 02:28:48;;;;;;;4.47;1.77;;;11.10;99.90;;;;;;6278202;22;20020;-83
2022/04/13 02:31:14;;;;;;;2.63;1.30;;;10.90;99.90;;;;;;6277566;22;20401;-90
2022/04/13 02:33:40;;;;;;;3.45;1.98;;;10.80;99.90;;;;;;6250114;22;20012;-89
2022/04/13 02:36:06;;;;;;;3.05;1.55;;;11.00;99.90;;;;;;6276919;22;20055;-86
2022/04/13 02:38:32;;;;;;;2.15;1.42;;;10.90;99.90;;;;;;6277207;22;20449;-84
2022/04/13 02:40:59;;;;;;;5.70;1.60;;;11.40;99.90;;;;;;6250222;22;20023;-84
2022/04/13 02:43:26;;;;;;;2.50;1.52;;;11.10;99.90;;;;;;6277462;22;20073;-85
2022/04/13 02:45:52;;;;;;;3.38;1.42;;;11.10;99.90;;;;;;6277099;22;20318;-83
2022/04/13 02:48:17;;;;;;;3.33;1.75;;;11.10;99.90;;;;;;6249606;22;20115;-84
2022/04/13 02:50:43;;;;;;;3.35;1.70;;;11.70;99.90;;;;;;6277060;22;20394;-84
2022/04/13 02:53:08;;;;;;;3.08;1.90;;;11.20;99.90;;;;;;6276217;22;20019;-84
2022/04/13 02:55:34;;;;;;;4.88;2.17;;;11.10;99.90;;;;;;6276753;22;20015;-84
2022/04/13 02:58:00;;;;;;;6.15;2.25;;;11.10;99.90;;;;;;6276515;22;20031;-84
2022/04/13 03:00:26;;;;;;;3.38;2.10;;;11.10;99.90;;;;;;6248731;22;20015;-85
2022/04/13 03:02:53;;;;;;;4.10;1.90;;;11.40;99.90;;;;;;6276650;22;20024;-83
2022/04/13 03:05:18;;;;;;;6.25;2.72;;;11.10;99.90;;;;;;6276221;22;20024;-86
2022/04/13 03:07:44;;;;;;;7.25;3.95;;;11.70;99.90;;;;;;6249192;22;20457;-85
2022/04/13 03:10:11;;;;;;;6.55;2.90;;;11.40;99.90;;;;;;6248855;22;20019;-84
2022/04/13 03:12:36;;;;;;;5.18;2.60;;;11.30;99.90;;;;;;6275901;22;20027;-84
2022/04/13 03:15:06;;;;;;;4.20;2.88;;;11.50;99.90;;;;;;6276246;22;20023;-83
2022/04/13 03:17:32;;;;;;;4.88;2.13;;;11.10;99.90;;;;;;6248894;22;20020;-85
2022/04/13 03:19:59;;;;;;;5.72;3.15;;;11.10;99.90;;;;;;6276451;22;20024;-83
2022/04/13 03:22:25;;;;;;;4.22;2.17;;;11.10;99.90;;;;;;6276241;22;20102;-84
2022/04/13 03:24:53;;;;;;;9.00;3.75;;;11.10;99.90;;;;;;6276266;22;20059;-83
2022/04/13 03:27:19;;;;;;;5.85;3.60;;;11.20;99.90;;;;;;6275728;22;20031;-84
2022/04/13 03:29:45;;;;;;;5.57;3.53;;;11.10;99.90;;;;;;6276446;22;20385;-84
2022/04/13 03:32:11;;;;;;;6.20;3.03;;;11.10;99.90;;;;;;6223776;22;20012;-84
2022/04/13 03:34:36;;;;;;;5.70;3.17;;;11.20;99.90;;;;;;6248669;22;20027;-86
2022/04/13 03:37:02;;;;;;;5.85;3.30;;;11.20;99.90;;;;;;6276109;22;20020;-85
2022/04/13 03:39:29;;;;;;;5.50;2.90;;;11.10;99.90;;;;;;6248510;22;20027;-83
2022/04/13 03:41:55;;;;;;;4.63;2.53;;;11.10;99.90;;;;;;6276182;22;20390;-84
2022/04/13 03:44:21;;;;;;;5.75;2.90;;;11.20;99.90;;;;;;6248403;22;20058;-84
2022/04/13 03:46:48;;;;;;;5.03;2.88;;;11.10;99.90;;;;;;6223808;22;20077;-87
2022/04/13 03:49:14;;;;;;;6.97;2.65;;;11.60;99.90;;;;;;6275907;22;20012;-83
2022/04/13 03:51:40;;;;;;;6.22;2.67;;;11.10;99.90;;;;;;6248713;22;20095;-85
2022/04/13 03:54:06;;;;;;;5.40;3.03;;;11.10;99.90;;;;;;6275532;22;20015;-83
2022/04/13 03:56:31;;;;;;;4.80;2.70;;;11.00;99.90;;;;;;6248659;22;20024;-85
2022/04/13 03:59:02;;;;;;;6.05;2.67;;;11.50;99.90;;;;;;6276010;22;20023;-85
2022/04/13 04:01:28;;;;;;;4.45;2.60;;;11.10;99.90;;;;;;6275325;22;20039;-87
2022/04/13 04:03:54;;;;;;;4.47;2.83;;;11.10;99.90;;;;;;6275808;22;20016;-83
2022/04/13 04:06:20;;;;;;;5.97;2.65;;;11.30;99.90;;;;;;6275838;22;20019;-82
2022/04/13 04:08:46;;;;;;;6.68;3.42;;;11.10;99.90;;;;;;6248193;22;20051;-83
2022/04/13 04:11:12;;;;;;;5.60;3.05;;;11.10;99.90;;;;;;6275326;22;20533;-83
2022/04/13 04:13:38;;;;;;;5.40;2.92;;;11.20;99.90;;;;;;6275227;22;20450;-83
2022/04/13 04:16:04;;;;;;;7.50;3.70;;;11.40;99.90;;;;;;6275830;22;20031;-86
2022/04/13 04:18:30;;;;;;;5.70;3.13;;;11.10;99.90;;;;;;6275516;22;20047;-84
2022/04/13 04:20:55;;;;;;;6.22;3.05;;;11.10;99.90;;;;;;6276207;22;20073;-84
2022/04/13 04:23:21;;;;;;;6.70;3.42;;;11.10;99.90;;;;;;6275587;22;20020;-83
2022/04/13 04:25:47;;;;;;;6.22;3.33;;;11.00;99.90;;;;;;6276067;22;20338;-83
2022/04/13 04:28:13;;;;;;;6.22;3.10;;;11.80;99.90;;;;;;6276750;22;20402;-84
2022/04/13 04:30:40;;;;;;;5.97;3.33;;;11.00;99.90;;;;;;6274563;22;20320;-82
2022/04/13 04:33:06;;;;;;;6.95;3.17;;;11.40;99.90;;;;;;6275821;22;20035;-82
2022/04/13 04:35:33;;;;;;;6.75;3.10;;;11.70;99.90;;;;;;6275621;22;20070;-83
2022/04/13 04:38:02;;;;;;;5.40;3.30;;;11.50;99.90;;;;;;6276065;22;20323;-84
2022/04/13 04:40:28;;;;;;;5.82;3.28;;;11.00;99.90;;;;;;6247999;22;20027;-83
2022/04/13 04:42:55;;;;;;;6.20;3.33;;;11.20;99.90;;;;;;6275838;22;20055;-83
2022/04/13 04:45:21;;;;;;;6.82;3.53;;;10.90;99.90;;;;;;6275964;22;20016;-89
2022/04/13 04:47:49;;;;;;;6.82;3.40;;;11.60;99.90;;;;;;6276161;22;20024;-90
2022/04/13 04:50:18;;;;;;;6.35;2.97;;;10.80;99.90;;;;;;6276107;22;20425;-90
2022/04/13 04:52:45;;;;;;;6.60;3.05;;;10.80;99.90;;;;;;6275144;22;20055;-89
2022/04/13 04:55:13;;;;;;;6.65;3.22;;;10.90;99.90;;;;;;6275801;22;20015;-87
2022/04/13 04:57:39;;;;;;;8.10;4.13;;;10.80;99.90;;;;;;6275751;22;20054;-87
2022/04/13 05:00:07;;;;;;;6.28;3.20;;;11.00;99.90;;;;;;6275964;22;20318;-90
2022/04/13 05:02:32;;;;;;;5.45;3.42;;;10.80;99.90;;;;;;6274881;22;20016;-89
2022/04/13 05:04:58;;;;;;;6.32;3.67;;;11.70;99.90;;;;;;6275203;22;20023;-89
2022/04/13 05:07:24;;;;;;;9.73;4.70;;;11.10;99.90;;;;;;6275736;22;20043;-84
2022/04/13 05:09:49;;;;;;;6.88;4.18;;;10.80;99.90;;;;;;6275796;22;20355;-83
2022/04/13 05:12:15;;;;;;;7.15;3.80;;;11.00;99.90;;;;;;6275693;22;20457;-83
2022/04/13 05:14:41;;;;;;;6.55;3.75;;;11.20;99.90;;;;;;6274883;22;20016;-84
2022/04/13 05:17:06;;;;;;;9.13;4.25;;;10.70;99.90;;;;;;6248187;22;20102;-83
2022/04/13 05:19:34;;;;;;;8.32;3.50;;;10.70;99.90;;;;;;6276322;22;20008;-84
2022/04/13 05:21:59;;;;;;;5.95;3.03;;;11.00;99.90;;;;;;6277149;22;20024;-83
2022/04/13 05:24:25;;;;;;;6.15;3.63;;;10.70;99.90;;;;;;6277458;22;20024;-85
2022/04/13 05:26:51;;;;;;;6.80;3.55;;;10.70;99.90;;;;;;6277418;22;20394;-82
2022/04/13 05:29:16;;;;;;;5.65;3.05;;;11.30;99.90;;;;;;6277474;22;20024;-83
2022/04/13 05:31:42;;;;;;;6.10;3.50;;;10.80;99.90;;;;;;6277329;22;20008;-83
2022/04/13 05:34:08;;;;;;;8.45;3.53;;;10.80;99.90;;;;;;6249876;22;20024;-83
2022/04/13 05:36:34;;;;;;;5.30;3.05;;;10.80;99.90;;;;;;6277514;22;20026;-85
2022/04/13 05:39:00;;;;;;;5.70;3.40;;;11.00;99.90;;;;;;6249881;22;20027;-83
2022/04/13 05:41:25;;;;;;;5.10;2.90;;;10.80;99.90;;;;;;6277634;22;20016;-83
2022/04/13 05:43:51;;;;;;;5.97;3.65;;;10.80;99.90;;;;;;6276850;22;20050;-84
2022/04/13 05:46:17;;;;;;;8.52;3.33;;;11.00;99.90;;;;;;6250241;22;20024;-83
2022/04/13 05:48:42;;;;;;;4.38;2.50;;;11.50;99.90;;;;;;6277695;22;20371;-84
2022/04/13 05:51:09;;;;;;;5.93;2.80;;;11.10;99.90;;;;;;6249665;22;20068;-83
2022/04/13 05:53:35;;;;;;;4.65;2.55;;;11.10;99.90;;;;;;6277115;22;20031;-83
2022/04/13 05:56:01;;;;;;;3.35;2.20;;;11.20;99.90;;;;;;6249806;22;20012;-83
2022/04/13 05:58:28;;;;;;;5.28;2.25;;;11.10;99.90;;;;;;6277058;22;20026;-83
2022/04/13 06:00:54;;;;;;;3.35;2.28;;;11.20;99.90;;;;;;6277017;22;20008;-82
2022/04/13 06:03:22;;;;;;;4.43;2.17;;;11.90;99.90;;;;;;6276778;22;20022;-84
2022/04/13 06:05:47;;;;;;;5.28;2.80;;;11.30;99.90;;;;;;6250274;22;20019;-84
2022/04/13 06:08:14;;;;;;;4.57;2.63;;;11.30;99.90;;;;;;6276923;22;20012;-83
2022/04/13 06:10:40;;;;;;;5.43;2.40;;;11.40;99.90;;;;;;6277306;22;20027;-85
2022/04/13 06:13:05;;;;;;;4.70;2.53;;;11.40;99.90;;;;;;6249610;22;20020;-83
2022/04/13 06:15:31;;;;;;;8.10;4.15;;;11.60;99.90;;;;;;6276385;22;20049;-83
2022/04/13 06:17:58;;;;;;;14.73;6.55;;;11.70;99.90;;;;;;6276814;22;20019;-82
2022/04/13 06:20:24;;;;;;;9.30;5.65;;;11.90;99.90;;;;;;6277318;22;20054;-82
2022/04/13 06:22:50;;;;;;;8.18;4.85;;;11.90;99.90;;;;;;6276954;22;20019;-84
2022/04/13 06:25:15;;;;;;;8.75;4.65;;;12.00;99.90;;;;;;6277176;22;20034;-83
2022/04/13 06:27:41;;;;;;;7.25;4.00;;;12.20;99.90;;;;;;6277386;22;20334;-84
2022/04/13 06:30:08;;;;;;;14.88;6.80;;;12.70;99.90;;;;;;6276570;22;20484;-83
2022/04/13 06:32:36;;;;;;;13.05;6.07;;;12.20;99.90;;;;;;6276639;22;20078;-83
2022/04/13 06:35:05;;;;;;;10.88;6.80;;;12.60;99.90;;;;;;6277269;22;20342;-83
2022/04/13 06:37:31;;;;;;;9.65;5.22;;;12.40;99.90;;;;;;6276353;22;20030;-83
2022/04/13 06:39:57;;;;;;;10.02;5.57;;;12.40;99.90;;;;;;6277148;22;20023;-83
2022/04/13 06:42:23;;;;;;;13.18;5.18;;;12.50;99.90;;;;;;6277001;22;20020;-83
2022/04/13 06:44:52;;;;;;;10.02;5.18;;;13.10;99.90;;;;;;6277161;22;20012;-83
2022/04/13 06:47:18;;;;;;;16.08;7.47;;;12.60;99.90;;;;;;6276844;22;20016;-81
2022/04/13 06:49:48;;;;;;;14.63;7.60;;;12.70;99.90;;;;;;6276045;22;20059;-82
2022/04/13 06:52:14;;;;;;;14.90;7.32;;;12.80;99.90;;;;;;6277082;22;20020;-86
2022/04/13 06:54:41;;;;;;;16.08;7.93;;;12.80;99.90;;;;;;6249349;22;20458;-82
2022/04/13 06:57:06;;;;;;;9.02;5.40;;;12.80;99.90;;;;;;6276782;22;20015;-81
2022/04/13 06:59:32;;;;;;;12.95;6.88;;;12.80;99.90;;;;;;6276183;22;20024;-80
2022/04/13 07:01:58;;;;;;;11.55;6.78;;;12.80;99.90;;;;;;6276813;22;20012;-82
2022/04/13 07:04:25;;;;;;;10.68;6.32;;;12.90;99.90;;;;;;6249365;22;20106;-82
2022/04/13 07:06:50;;;;;;;13.98;5.57;;;13.10;99.90;;;;;;6249005;22;20016;-81
2022/04/13 07:09:16;;;;;;;12.63;7.18;;;13.50;99.90;;;;;;6249332;22;20477;-81
2022/04/13 07:11:42;;;;;;;13.98;7.13;;;13.30;99.90;;;;;;6276575;22;20027;-81
2022/04/13 07:14:07;;;;;;;14.68;6.88;;;13.40;99.90;;;;;;6248912;22;20038;-84
2022/04/13 07:16:33;;;;;;;10.13;5.30;;;13.50;99.90;;;;;;6277677;22;20097;-85
2022/04/13 07:18:59;;;;;;;11.88;6.28;;;13.60;99.90;;;;;;6278169;22;20389;-86
2022/04/13 07:21:24;;;;;;;12.95;6.72;;;13.70;99.90;;;;;;6249748;22;20358;-84
2022/04/13 07:23:50;;;;;;;14.57;6.80;;;13.70;99.90;;;;;;6249270;22;20051;-84
2022/04/13 07:26:16;;;;;;;11.25;6.95;;;13.70;99.90;;;;;;6277093;22;20503;-83
2022/04/13 07:28:43;;;;;;;7.57;4.40;;;13.80;99.90;;;;;;6276472;22;20015;-85
2022/04/13 07:31:08;;;;;;;9.75;5.53;;;13.90;99.90;;;;;;6276121;22;20023;-85
2022/04/13 07:33:34;;;;;;;7.65;4.15;;;14.00;99.90;;;;;;6276201;22;20022;-81
2022/04/13 07:36:00;;;;;;;13.68;6.80;;;14.30;99.90;;;;;;6249137;22;20023;-82
2022/04/13 07:38:25;;;;;;;10.55;5.70;;;14.50;99.90;;;;;;6275755;22;20026;-82
2022/04/13 07:40:51;;;;;;;11.57;7.13;;;14.50;99.90;;;;;;6248893;22;20091;-82
2022/04/13 07:43:18;;;;;;;9.93;5.68;;;14.70;99.90;;;;;;6276104;22;20081;-86
2022/04/13 07:45:45;;;;;;;11.63;5.78;;;14.80;99.90;;;;;;6275896;22;20039;-84
2022/04/13 07:48:10;;;;;;;12.60;5.55;;;14.90;99.90;;;;;;6249455;22;20019;-87
2022/04/13 07:50:36;;;;;;;12.15;7.03;;;15.00;99.90;;;;;;6276594;22;20030;-81
2022/04/13 07:53:02;;;;;;;14.82;7.32;;;15.10;99.90;;;;;;6276299;22;20026;-82
2022/04/13 07:55:27;;;;;;;8.30;4.85;;;15.20;99.90;;;;;;6248809;22;20353;-82
2022/04/13 07:57:53;;;;;;;8.32;5.00;;;15.10;99.90;;;;;;6248622;22;20107;-82
2022/04/13 08:00:19;;;;;;;9.07;5.05;;;15.10;99.90;;;;;;6276395;22;20019;-82
2022/04/13 08:02:45;;;;;;;9.60;4.65;;;15.10;99.90;;;;;;6249272;22;20372;-82
2022/04/13 08:05:12;;;;;;;7.13;3.42;;;15.00;99.90;;;;;;6248840;22;20030;-87
2022/04/13 08:07:39;;;;;;;12.35;4.05;;;15.30;99.90;;;;;;6276651;22;20401;-82
2022/04/13 08:10:06;;;;;;;9.02;4.70;;;15.20;99.90;;;;;;6276168;22;20016;-81
2022/04/13 08:12:32;;;;;;;8.05;4.40;;;15.10;99.90;;;;;;6275952;22;20065;-83
2022/04/13 08:14:59;;;;;;;9.80;6.22;;;15.00;99.90;;;;;;6276116;22;20086;-81
2022/04/13 08:17:25;;;;;;;7.25;4.20;;;15.20;99.90;;;;;;6276472;22;20090;-82
2022/04/13 08:19:52;;;;;;;7.75;3.65;;;15.20;99.90;;;;;;6276461;22;20038;-81
2022/04/13 08:22:25;;;;;;;6.45;3.78;;;15.20;99.90;;;;;;6248980;22;20082;-82
2022/04/13 08:24:52;;;;;;;9.88;4.78;;;15.20;99.90;;;;;;6276472;22;20098;-82
2022/04/13 08:27:18;;;;;;;11.68;5.75;;;15.30;99.90;;;;;;6249309;22;20020;-82
2022/04/13 08:29:46;;;;;;;7.30;4.80;;;15.40;99.90;;;;;;6276849;22;20019;-82
2022/04/13 08:32:12;;;;;;;12.60;4.85;;;15.50;99.90;;;;;;6224818;22;20398;-82
2022/04/13 08:34:39;;;;;;;7.65;3.88;;;15.60;99.90;;;;;;6248854;22;20346;-82
2022/04/13 08:37:05;;;;;;;9.18;4.57;;;15.50;99.90;;;;;;6249202;22;20024;-84
2022/04/13 08:39:30;;;;;;;7.68;3.40;;;15.80;99.90;;;;;;6276456;22;20450;-82
2022/04/13 08:41:58;;;;;;;7.35;3.58;;;15.90;99.90;;;;;;6249191;22;20030;-83
2022/04/13 08:44:39;;;;;;;6.88;4.15;;;16.10;99.90;;;;;;6276494;22;20024;-82
2022/04/13 08:47:11;;;;;;;10.75;4.45;;;16.30;99.90;;;;;;6249191;22;20027;-83
2022/04/13 08:49:40;;;;;;;10.80;4.40;;;16.40;99.90;;;;;;6276785;22;20027;-82
2022/04/13 08:52:08;;;;;;;10.73;4.95;;;16.40;99.90;;;;;;6248983;22;20454;-84
2022/04/13 08:54:59;;;;;;;9.55;4.30;;;16.40;99.90;;;;;;6277382;22;20453;-82
2022/04/13 08:57:28;;;;;;;7.95;3.75;;;16.50;99.90;;;;;;6278260;22;20342;-82
2022/04/13 09:00:02;;;;;;;13.20;5.40;;;17.00;99.90;;;;;;6250763;22;20059;-82
2022/04/13 09:03:00;;;;;;;6.57;3.47;;;16.90;99.90;;;;;;6278571;22;20020;-83
2022/04/13 09:05:31;;;;;;;6.75;3.13;;;17.10;99.90;;;;;;6278170;22;20452;-82
2022/04/13 09:08:05;;;;;;;5.53;2.10;;;17.30;99.90;;;;;;6250936;22;20023;-82
2022/04/13 09:10:32;;;;;;;6.95;3.05;;;17.40;99.90;;;;;;6250950;22;20398;-81
2022/04/13 09:12:58;;;;;;;11.68;3.55;;;17.40;99.90;;;;;;6279516;22;20047;-90
2022/04/13 09:15:24;;;;;;;4.78;2.58;;;17.50;99.90;;;;;;6279678;22;20078;-89
2022/04/13 09:17:50;;;;;;;7.95;3.55;;;17.60;99.90;;;;;;6251952;22;20019;-90
2022/04/13 09:20:17;;;;;;;6.47;3.63;;;17.70;99.90;;;;;;6281132;22;20023;-83
2022/04/13 09:22:43;;;;;;;8.93;3.22;;;17.60;99.90;;;;;;6257427;22;20026;-85
2022/04/13 09:25:10;;;;;;;5.60;2.65;;;17.60;99.90;;;;;;6257250;22;20035;-89
2022/04/13 09:27:38;;;;;;;5.97;3.08;;;17.60;99.90;;;;;;6281755;22;20534;-92
2022/04/13 09:30:05;;;;;;;10.05;3.60;;;17.70;99.90;;;;;;6257350;22;20034;-90
2022/04/13 09:32:31;;;;;;;5.22;2.97;;;17.80;99.90;;;;;;6281058;22;20078;-90
2022/04/13 09:34:59;;;;;;;8.30;3.40;;;17.80;99.90;;;;;;6281927;22;20027;-91
2022/04/13 09:37:25;;;;;;;5.00;2.60;;;17.90;99.90;;;;;;6288594;22;20027;-83
2022/04/13 09:39:51;;;;;;;6.45;2.53;;;18.00;99.90;;;;;;6237758;22;20025;-82
2022/04/13 09:42:18;;;;;;;8.25;2.95;;;18.20;99.90;;;;;;6289931;22;20016;-86
2022/04/13 09:44:55;;;;;;;6.47;2.78;;;18.30;99.90;;;;;;6256484;22;20051;-92
2022/04/13 09:47:20;;;;;;;5.93;2.72;;;18.40;99.90;;;;;;6251565;22;20020;-93
2022/04/13 09:49:55;;;;;;;5.30;2.78;;;18.50;99.90;;;;;;6279270;22;20019;-84
2022/04/13 09:52:40;;;;;;;5.40;2.10;;;18.70;99.90;;;;;;6225915;22;20012;-93
2022/04/13 09:55:08;;;;;;;3.50;2.03;;;18.80;99.90;;;;;;6251077;22;20032;-94
2022/04/13 09:57:34;;;;;;;6.57;3.22;;;18.90;99.90;;;;;;6226383;22;20030;-88
2022/04/13 10:00:04;;;;;;;4.90;2.40;;;18.90;99.90;;;;;;6277429;22;20020;-82
2022/04/13 10:02:37;;;;;;;7.38;2.03;;;19.10;99.90;;;;;;6277708;22;20016;-90
2022/04/13 10:05:08;;;;;;;6.18;3.40;;;19.10;99.90;;;;;;6250498;22;20122;-86
2022/04/13 10:07:34;;;;;;;4.40;2.08;;;19.10;99.90;;;;;;6250548;22;20051;-91
2022/04/13 10:10:00;;;;;;;3.92;2.40;;;19.20;99.90;;;;;;6250410;22;20019;-92
2022/04/13 10:12:26;;;;;;;7.38;2.33;;;19.30;99.90;;;;;;6277673;22;20360;-91
2022/04/13 10:14:52;;;;;;;5.68;2.00;;;19.40;99.90;;;;;;6276947;22;20020;-84
2022/04/13 10:17:20;;;;;;;3.13;1.83;;;19.60;99.90;;;;;;6224882;22;20457;-92
2022/04/13 10:20:04;;;;;;;6.28;1.75;;;19.70;99.90;;;;;;6277562;22;20020;-83
2022/04/13 10:22:30;;;;;;;4.53;1.90;;;19.70;99.90;;;;;;6277890;22;20043;-82
2022/04/13 10:25:15;;;;;;;5.25;2.30;;;19.80;99.90;;;;;;6251160;22;20028;-83
2022/04/13 10:27:56;;;;;;;6.05;2.17;;;19.90;99.90;;;;;;6277411;22;20054;-86
2022/04/13 10:30:33;;;;;;;3.70;1.30;;;20.00;99.90;;;;;;6277352;22;20051;-83
2022/04/13 10:33:12;;;;;;;2.38;1.10;;;20.10;99.90;;;;;;6276376;22;20030;-85
2022/04/13 10:35:40;;;;;;;5.85;1.65;;;20.20;99.90;;;;;;6276349;22;20020;-83
2022/04/13 10:38:07;;;;;;;4.38;1.80;;;20.30;99.90;;;;;;6276791;22;20094;-84
2022/04/13 10:40:35;;;;;;;4.07;1.73;;;20.40;99.90;;;;;;6249921;22;20015;-83
2022/04/13 10:43:03;;;;;;;7.13;2.03;;;20.10;99.90;;;;;;6276044;22;20469;-83
2022/04/13 10:45:29;;;;;;;5.35;2.72;;;20.30;99.90;;;;;;6276894;22;20026;-82
2022/04/13 10:48:28;;;;;;;6.97;2.13;;;20.30;99.90;;;;;;6276343;22;20022;-83
2022/04/13 10:51:00;;;;;;;4.20;2.17;;;20.20;99.90;;;;;;6248984;22;20099;-86
2022/04/13 10:53:29;;;;;;;6.53;1.60;;;20.20;99.90;;;;;;6249081;22;20059;-88
2022/04/13 10:55:59;;;;;;;4.97;1.52;;;20.50;99.90;;;;;;6276506;22;20094;-86
2022/04/13 10:58:33;;;;;;;4.97;2.42;;;20.60;99.90;;;;;;6276463;22;20016;-85
2022/04/13 11:01:05;;;;;;;5.68;1.48;;;20.60;99.90;;;;;;6277719;22;20027;-84
2022/04/13 11:03:37;;;;;;;5.38;2.13;;;20.70;99.90;;;;;;6276512;22;20020;-84
2022/04/13 11:06:05;;;;;;;4.63;1.75;;;21.00;99.90;;;;;;6276331;22;20434;-84
2022/04/13 11:08:57;;;;;;;3.17;1.20;;;21.00;99.90;;;;;;6276449;22;20020;-84
2022/04/13 11:11:26;;;;;;;2.72;1.13;;;21.20;99.90;;;;;;6249140;22;20055;-84
2022/04/13 11:13:52;;;;;;;4.78;2.00;;;21.30;99.90;;;;;;6276852;22;20319;-84
2022/04/13 11:16:20;;;;;;;6.32;1.98;;;21.30;99.90;;;;;;6276550;22;20027;-84
2022/04/13 11:19:02;;;;;;;3.03;1.50;;;21.30;99.90;;;;;;6249080;22;20027;-85
2022/04/13 11:21:29;;;;;;;4.68;1.50;;;21.50;99.90;;;;;;6249753;22;20019;-84
2022/04/13 11:23:56;;;;;;;4.20;1.25;;;21.30;99.90;;;;;;6276226;22;20090;-84
2022/04/13 11:26:34;;;;;;;4.55;1.55;;;21.20;99.90;;;;;;6276784;22;20022;-84
2022/04/13 11:29:22;;;;;;;3.78;1.15;;;21.10;99.90;;;;;;6276788;22;20802;-84
2022/04/13 11:32:04;;;;;;;3.17;1.40;;;20.90;99.90;;;;;;6276461;22;20023;-84
2022/04/13 11:34:31;;;;;;;3.80;1.48;;;20.80;99.90;;;;;;6276379;22;20047;-85
2022/04/13 11:37:02;;;;;;;6.18;1.58;;;20.90;99.90;;;;;;6249423;22;20016;-84
2022/04/13 11:39:52;;;;;;;4.90;1.20;;;20.80;99.90;;;;;;6276626;22;20024;-86
2022/04/13 11:42:26;;;;;;;5.68;1.27;;;20.60;99.90;;;;;;6276680;22;20023;-84
2022/04/13 11:45:03;;;;;;;3.33;1.17;;;20.80;99.90;;;;;;6248723;22;20027;-84
2022/04/13 11:47:52;;;;;;;2.10;0.70;;;20.80;99.90;;;;;;6276176;22;20019;-84
2022/04/13 11:50:17;;;;;;;3.10;0.85;;;20.80;99.90;;;;;;6249154;22;20093;-84
2022/04/13 11:53:13;;;;;;;2.58;0.80;;;20.80;99.90;;;;;;6224038;22;20020;-85
2022/04/13 11:55:39;;;;;;;;;;;20.60;99.90;;;;;;6249549;22;20027;-85
2022/04/13 11:58:09;;;;;;;3.35;1.13;;;20.60;99.90;;;;;;6223876;22;19919;-83
2022/04/13 12:00:38;;;;;;;2.67;0.80;;;20.40;99.90;;;;;;6276435;22;20016;-83
2022/04/13 12:03:11;;;;;;;2.92;0.63;;;20.30;99.90;;;;;;6276240;22;20024;-88
2022/04/13 12:05:46;;;;;;;3.30;0.63;;;20.10;99.90;;;;;;6276057;22;20030;-88
2022/04/13 12:08:28;;;;;;;3.45;0.75;;;20.10;99.90;;;;;;6249077;22;20019;-87
2022/04/13 12:11:07;;;;;;;2.58;0.70;;;19.90;99.90;;;;;;6275946;22;20019;-86
2022/04/13 12:13:53;;;;;;;3.83;0.73;;;19.90;99.90;;;;;;6248540;22;20142;-88
2022/04/13 12:16:23;;;;;;;1.38;0.60;;;19.80;99.90;;;;;;6247946;22;20019;-88
2022/04/13 12:18:52;;;;;;;5.25;0.70;;;19.70;99.90;;;;;;6276635;22;20437;-89
2022/04/13 12:21:24;;;;;;;2.78;0.68;;;19.70;99.90;;;;;;6248341;22;20016;-89
2022/04/13 12:23:50;;;;;;;2.10;0.73;;;19.70;99.90;;;;;;6275399;22;20024;-80
2022/04/13 12:26:17;;;;;;;2.30;1.02;;;19.50;99.90;;;;;;6276240;22;20103;-90
2022/04/13 12:28:43;;;;;;;4.35;0.80;;;19.30;99.90;;;;;;6277020;22;20020;-81
2022/04/13 12:31:11;;;;;;;2.13;0.82;;;19.30;99.90;;;;;;6277901;22;20016;-84
2022/04/13 12:33:39;;;;;;;3.65;1.13;;;19.20;99.90;;;;;;6278227;22;20027;-87
2022/04/13 12:36:10;;;;;;;2.60;0.70;;;19.20;99.90;;;;;;6277961;22;20350;-86
2022/04/13 12:38:47;;;;;;;3.90;0.82;;;19.10;99.90;;;;;;6278125;22;20081;-86
2022/04/13 12:41:18;;;;;;;3.47;0.80;;;19.00;99.90;;;;;;6278248;22;20030;-85
2022/04/13 12:43:57;;;;;;;4.00;1.10;;;19.10;99.90;;;;;;6277803;22;20016;-86
2022/04/13 12:46:24;;;;;;;4.38;1.02;;;19.10;99.90;;;;;;6277659;22;20062;-86
2022/04/13 12:48:53;;;;;;;6.32;1.20;;;19.00;99.90;;;;;;6250413;22;20015;-85
2022/04/13 12:51:19;;;;;;;2.22;0.70;;;18.90;99.90;;;;;;6277839;22;20019;-87